Terminal Aerodrome Forecast
Issued by NWS North Platte, NE

Home | Current Version | Previous Version | Text Only | Print | Product List | Glossary Off
Versions: 1 2 3 4 5 6 7 8 9 10 11 12 13 14 15 16 17 18 19 20 21 22 23 24 25

000
FTUS43 KLBF 290248 AAA
TAFVTN
TAF AMD
KVTN 290248Z 2903/2924 34004KT 4SM BR OVC005
     FM290900 02006KT 2SM BR OVC003
     FM291700 05008KT P6SM OVC009
     FM292100 05012KT 4SM -RA BR OVC015=

USA.gov is the U.S. government's official web portal to all federal, state and local government web resources and services.